sensor_id;sensor_type;location;lat;lon;timestamp;P1;durP1;ratioP1;P2;durP2;ratioP2
7383;SDS011;3733;47.994;8.820;2022-09-23T00:00:42;7.30;;;4.17;;
7383;SDS011;3733;47.994;8.820;2022-09-23T00:03:09;6.03;;;4.10;;
7383;SDS011;3733;47.994;8.820;2022-09-23T00:05:35;6.73;;;3.63;;
7383;SDS011;3733;47.994;8.820;2022-09-23T00:08:05;4.17;;;3.77;;
7383;SDS011;3733;47.994;8.820;2022-09-23T00:10:31;6.83;;;4.40;;
7383;SDS011;3733;47.994;8.820;2022-09-23T00:13:00;4.70;;;3.80;;
7383;SDS011;3733;47.994;8.820;2022-09-23T00:15:26;6.40;;;3.97;;
7383;SDS011;3733;47.994;8.820;2022-09-23T00:17:55;5.30;;;4.03;;
7383;SDS011;3733;47.994;8.820;2022-09-23T00:20:21;5.10;;;4.00;;
7383;SDS011;3733;47.994;8.820;2022-09-23T00:22:46;6.57;;;4.33;;
7383;SDS011;3733;47.994;8.820;2022-09-23T00:25:12;4.37;;;3.90;;
7383;SDS011;3733;47.994;8.820;2022-09-23T00:27:38;4.03;;;3.63;;
7383;SDS011;3733;47.994;8.820;2022-09-23T00:30:06;6.07;;;4.90;;
7383;SDS011;3733;47.994;8.820;2022-09-23T00:32:34;6.40;;;4.87;;
7383;SDS011;3733;47.994;8.820;2022-09-23T00:35:01;4.67;;;4.07;;
7383;SDS011;3733;47.994;8.820;2022-09-23T00:37:28;9.37;;;4.40;;
7383;SDS011;3733;47.994;8.820;2022-09-23T00:39:54;6.00;;;4.70;;
7383;SDS011;3733;47.994;8.820;2022-09-23T00:42:21;8.13;;;4.67;;
7383;SDS011;3733;47.994;8.820;2022-09-23T00:44:55;4.27;;;3.87;;
7383;SDS011;3733;47.994;8.820;2022-09-23T00:49:52;4.80;;;4.07;;
7383;SDS011;3733;47.994;8.820;2022-09-23T00:52:27;5.53;;;4.27;;
7383;SDS011;3733;47.994;8.820;2022-09-23T00:54:55;4.87;;;4.33;;
7383;SDS011;3733;47.994;8.820;2022-09-23T00:57:22;8.30;;;4.03;;
7383;SDS011;3733;47.994;8.820;2022-09-23T00:59:49;5.17;;;4.63;;
7383;SDS011;3733;47.994;8.820;2022-09-23T01:02:16;5.73;;;4.80;;
7383;SDS011;3733;47.994;8.820;2022-09-23T01:04:48;6.20;;;3.83;;
7383;SDS011;3733;47.994;8.820;2022-09-23T01:07:15;5.23;;;4.00;;
7383;SDS011;3733;47.994;8.820;2022-09-23T01:09:41;4.60;;;4.17;;
7383;SDS011;3733;47.994;8.820;2022-09-23T01:14:58;4.97;;;4.43;;
7383;SDS011;3733;47.994;8.820;2022-09-23T01:34:51;4.40;;;3.93;;
7383;SDS011;3733;47.994;8.820;2022-09-23T01:40:51;4.50;;;4.07;;
7383;SDS011;3733;47.994;8.820;2022-09-23T01:43:45;5.77;;;4.57;;
7383;SDS011;3733;47.994;8.820;2022-09-23T01:46:26;10.67;;;4.93;;
7383;SDS011;3733;47.994;8.820;2022-09-23T01:51:48;10.70;;;4.50;;
7383;SDS011;3733;47.994;8.820;2022-09-23T01:54:41;5.53;;;5.00;;
7383;SDS011;3733;47.994;8.820;2022-09-23T01:57:34;4.90;;;4.40;;
7383;SDS011;3733;47.994;8.820;2022-09-23T02:02:48;4.80;;;4.30;;
7383;SDS011;3733;47.994;8.820;2022-09-23T02:05:29;6.67;;;4.10;;
7383;SDS011;3733;47.994;8.820;2022-09-23T02:08:02;4.87;;;4.37;;
7383;SDS011;3733;47.994;8.820;2022-09-23T02:10:49;5.10;;;3.80;;
7383;SDS011;3733;47.994;8.820;2022-09-23T02:13:26;4.17;;;3.77;;
7383;SDS011;3733;47.994;8.820;2022-09-23T02:15:58;3.97;;;3.50;;
7383;SDS011;3733;47.994;8.820;2022-09-23T02:18:31;4.33;;;3.93;;
7383;SDS011;3733;47.994;8.820;2022-09-23T02:21:03;4.53;;;4.13;;
7383;SDS011;3733;47.994;8.820;2022-09-23T02:23:37;4.50;;;3.60;;
7383;SDS011;3733;47.994;8.820;2022-09-23T02:29:17;5.90;;;3.80;;
7383;SDS011;3733;47.994;8.820;2022-09-23T02:31:58;6.10;;;3.97;;
7383;SDS011;3733;47.994;8.820;2022-09-23T02:37:16;4.30;;;3.80;;
7383;SDS011;3733;47.994;8.820;2022-09-23T02:42:14;4.00;;;3.70;;
7383;SDS011;3733;47.994;8.820;2022-09-23T02:44:45;3.80;;;3.40;;
7383;SDS011;3733;47.994;8.820;2022-09-23T02:47:10;6.20;;;4.63;;
7383;SDS011;3733;47.994;8.820;2022-09-23T02:49:36;4.30;;;3.90;;
7383;SDS011;3733;47.994;8.820;2022-09-23T02:52:03;5.10;;;4.23;;
7383;SDS011;3733;47.994;8.820;2022-09-23T02:54:30;4.47;;;4.07;;
7383;SDS011;3733;47.994;8.820;2022-09-23T02:56:58;5.70;;;4.33;;
7383;SDS011;3733;47.994;8.820;2022-09-23T02:59:26;5.67;;;4.90;;
7383;SDS011;3733;47.994;8.820;2022-09-23T03:10:32;7.03;;;4.90;;
7383;SDS011;3733;47.994;8.820;2022-09-23T03:13:16;6.37;;;4.63;;
7383;SDS011;3733;47.994;8.820;2022-09-23T03:15:51;4.77;;;4.23;;
7383;SDS011;3733;47.994;8.820;2022-09-23T03:18:28;7.43;;;5.30;;
7383;SDS011;3733;47.994;8.820;2022-09-23T03:20:57;7.50;;;4.63;;
7383;SDS011;3733;47.994;8.820;2022-09-23T03:23:31;5.57;;;4.20;;
7383;SDS011;3733;47.994;8.820;2022-09-23T03:26:00;5.17;;;4.40;;
7383;SDS011;3733;47.994;8.820;2022-09-23T03:28:30;5.30;;;4.80;;
7383;SDS011;3733;47.994;8.820;2022-09-23T03:31:04;5.57;;;4.40;;
7383;SDS011;3733;47.994;8.820;2022-09-23T03:33:30;5.80;;;4.40;;
7383;SDS011;3733;47.994;8.820;2022-09-23T03:36:07;5.70;;;4.67;;
7383;SDS011;3733;47.994;8.820;2022-09-23T03:38:55;5.40;;;4.20;;
7383;SDS011;3733;47.994;8.820;2022-09-23T03:41:49;5.60;;;4.70;;
7383;SDS011;3733;47.994;8.820;2022-09-23T03:44:16;5.10;;;4.33;;
7383;SDS011;3733;47.994;8.820;2022-09-23T03:46:43;13.63;;;5.13;;
7383;SDS011;3733;47.994;8.820;2022-09-23T03:51:41;4.83;;;4.20;;
7383;SDS011;3733;47.994;8.820;2022-09-23T03:54:07;5.53;;;4.10;;
7383;SDS011;3733;47.994;8.820;2022-09-23T03:56:33;4.40;;;3.40;;
7383;SDS011;3733;47.994;8.820;2022-09-23T03:58:58;9.80;;;4.60;;
7383;SDS011;3733;47.994;8.820;2022-09-23T04:01:24;4.50;;;3.40;;
7383;SDS011;3733;47.994;8.820;2022-09-23T04:03:50;6.17;;;4.80;;
7383;SDS011;3733;47.994;8.820;2022-09-23T04:06:17;5.60;;;4.43;;
7383;SDS011;3733;47.994;8.820;2022-09-23T04:08:43;5.47;;;4.47;;
7383;SDS011;3733;47.994;8.820;2022-09-23T04:11:09;4.83;;;4.30;;
7383;SDS011;3733;47.994;8.820;2022-09-23T04:13:34;7.50;;;4.70;;
7383;SDS011;3733;47.994;8.820;2022-09-23T04:16:00;4.70;;;4.30;;
7383;SDS011;3733;47.994;8.820;2022-09-23T04:18:26;6.30;;;4.20;;
7383;SDS011;3733;47.994;8.820;2022-09-23T04:20:55;5.23;;;4.60;;
7383;SDS011;3733;47.994;8.820;2022-09-23T04:23:23;5.43;;;4.63;;
7383;SDS011;3733;47.994;8.820;2022-09-23T04:25:52;6.87;;;5.73;;
7383;SDS011;3733;47.994;8.820;2022-09-23T04:28:18;6.87;;;6.00;;
7383;SDS011;3733;47.994;8.820;2022-09-23T04:30:44;7.90;;;5.77;;
7383;SDS011;3733;47.994;8.820;2022-09-23T04:33:11;6.27;;;5.00;;
7383;SDS011;3733;47.994;8.820;2022-09-23T04:35:38;7.53;;;5.67;;
7383;SDS011;3733;47.994;8.820;2022-09-23T04:38:04;10.87;;;6.07;;
7383;SDS011;3733;47.994;8.820;2022-09-23T04:40:31;10.00;;;5.90;;
7383;SDS011;3733;47.994;8.820;2022-09-23T04:42:57;12.80;;;5.60;;
7383;SDS011;3733;47.994;8.820;2022-09-23T04:45:23;11.17;;;6.17;;
7383;SDS011;3733;47.994;8.820;2022-09-23T04:47:48;11.10;;;5.87;;
7383;SDS011;3733;47.994;8.820;2022-09-23T04:50:14;9.03;;;6.03;;
7383;SDS011;3733;47.994;8.820;2022-09-23T04:52:40;9.30;;;5.87;;
7383;SDS011;3733;47.994;8.820;2022-09-23T04:55:06;11.73;;;7.37;;
7383;SDS011;3733;47.994;8.820;2022-09-23T04:57:32;9.00;;;6.70;;
7383;SDS011;3733;47.994;8.820;2022-09-23T04:59:58;10.17;;;6.53;;
7383;SDS011;3733;47.994;8.820;2022-09-23T05:02:24;8.07;;;6.10;;
7383;SDS011;3733;47.994;8.820;2022-09-23T05:04:51;8.30;;;5.73;;
7383;SDS011;3733;47.994;8.820;2022-09-23T05:07:16;9.40;;;6.00;;
7383;SDS011;3733;47.994;8.820;2022-09-23T05:09:43;10.20;;;6.07;;
7383;SDS011;3733;47.994;8.820;2022-09-23T05:12:09;7.33;;;5.77;;
7383;SDS011;3733;47.994;8.820;2022-09-23T05:14:36;10.20;;;6.30;;
7383;SDS011;3733;47.994;8.820;2022-09-23T05:17:03;6.57;;;5.37;;
7383;SDS011;3733;47.994;8.820;2022-09-23T05:19:29;8.17;;;5.00;;
7383;SDS011;3733;47.994;8.820;2022-09-23T05:21:55;9.40;;;5.80;;
7383;SDS011;3733;47.994;8.820;2022-09-23T05:24:20;7.40;;;5.90;;
7383;SDS011;3733;47.994;8.820;2022-09-23T05:26:48;7.73;;;5.93;;
7383;SDS011;3733;47.994;8.820;2022-09-23T05:29:14;11.13;;;6.70;;
7383;SDS011;3733;47.994;8.820;2022-09-23T05:31:39;8.20;;;6.30;;
7383;SDS011;3733;47.994;8.820;2022-09-23T05:34:05;11.93;;;7.50;;
7383;SDS011;3733;47.994;8.820;2022-09-23T05:36:32;10.50;;;7.57;;
7383;SDS011;3733;47.994;8.820;2022-09-23T05:38:59;8.50;;;7.60;;
7383;SDS011;3733;47.994;8.820;2022-09-23T05:41:25;9.87;;;7.07;;
7383;SDS011;3733;47.994;8.820;2022-09-23T05:43:51;10.20;;;7.40;;
7383;SDS011;3733;47.994;8.820;2022-09-23T05:46:18;8.57;;;6.90;;
7383;SDS011;3733;47.994;8.820;2022-09-23T05:48:47;8.60;;;7.30;;
7383;SDS011;3733;47.994;8.820;2022-09-23T05:51:14;10.97;;;8.07;;
7383;SDS011;3733;47.994;8.820;2022-09-23T05:53:44;10.60;;;8.10;;
7383;SDS011;3733;47.994;8.820;2022-09-23T05:56:11;14.13;;;8.93;;
7383;SDS011;3733;47.994;8.820;2022-09-23T05:58:41;12.50;;;7.97;;
7383;SDS011;3733;47.994;8.820;2022-09-23T06:01:08;13.33;;;7.00;;
7383;SDS011;3733;47.994;8.820;2022-09-23T06:03:35;9.07;;;6.60;;
7383;SDS011;3733;47.994;8.820;2022-09-23T06:06:00;11.10;;;7.67;;
7383;SDS011;3733;47.994;8.820;2022-09-23T06:08:26;9.47;;;5.70;;
7383;SDS011;3733;47.994;8.820;2022-09-23T06:10:51;7.30;;;5.63;;
7383;SDS011;3733;47.994;8.820;2022-09-23T06:13:17;8.13;;;5.87;;
7383;SDS011;3733;47.994;8.820;2022-09-23T06:15:43;8.40;;;6.00;;
7383;SDS011;3733;47.994;8.820;2022-09-23T06:18:09;6.90;;;5.53;;
7383;SDS011;3733;47.994;8.820;2022-09-23T06:20:35;7.60;;;5.97;;
7383;SDS011;3733;47.994;8.820;2022-09-23T06:23:05;8.33;;;5.17;;
7383;SDS011;3733;47.994;8.820;2022-09-23T06:25:33;8.40;;;5.10;;
7383;SDS011;3733;47.994;8.820;2022-09-23T06:28:00;7.10;;;4.83;;
7383;SDS011;3733;47.994;8.820;2022-09-23T06:30:26;8.13;;;5.13;;
7383;SDS011;3733;47.994;8.820;2022-09-23T06:32:54;5.10;;;4.60;;
7383;SDS011;3733;47.994;8.820;2022-09-23T06:35:22;7.30;;;4.90;;
7383;SDS011;3733;47.994;8.820;2022-09-23T06:37:50;7.63;;;5.30;;
7383;SDS011;3733;47.994;8.820;2022-09-23T06:40:17;7.77;;;5.30;;
7383;SDS011;3733;47.994;8.820;2022-09-23T06:42:43;6.57;;;5.20;;
7383;SDS011;3733;47.994;8.820;2022-09-23T06:45:09;6.33;;;4.80;;
7383;SDS011;3733;47.994;8.820;2022-09-23T06:47:40;8.83;;;6.97;;
7383;SDS011;3733;47.994;8.820;2022-09-23T06:50:07;7.60;;;5.80;;
7383;SDS011;3733;47.994;8.820;2022-09-23T06:52:33;10.77;;;5.63;;
7383;SDS011;3733;47.994;8.820;2022-09-23T06:54:59;9.67;;;5.57;;
7383;SDS011;3733;47.994;8.820;2022-09-23T06:57:28;5.97;;;4.80;;
7383;SDS011;3733;47.994;8.820;2022-09-23T06:59:57;5.40;;;4.90;;
7383;SDS011;3733;47.994;8.820;2022-09-23T07:02:23;6.40;;;4.87;;
7383;SDS011;3733;47.994;8.820;2022-09-23T07:04:50;8.60;;;5.27;;
7383;SDS011;3733;47.994;8.820;2022-09-23T07:07:16;9.00;;;6.20;;
7383;SDS011;3733;47.994;8.820;2022-09-23T07:09:42;6.63;;;5.50;;
7383;SDS011;3733;47.994;8.820;2022-09-23T07:12:08;6.53;;;5.53;;
7383;SDS011;3733;47.994;8.820;2022-09-23T07:14:34;9.10;;;5.50;;
7383;SDS011;3733;47.994;8.820;2022-09-23T07:17:00;5.97;;;5.37;;
7383;SDS011;3733;47.994;8.820;2022-09-23T07:19:27;7.00;;;5.80;;
7383;SDS011;3733;47.994;8.820;2022-09-23T07:21:52;9.60;;;5.87;;
7383;SDS011;3733;47.994;8.820;2022-09-23T07:24:18;6.03;;;5.13;;
7383;SDS011;3733;47.994;8.820;2022-09-23T07:26:43;5.20;;;4.70;;
7383;SDS011;3733;47.994;8.820;2022-09-23T07:29:11;7.07;;;5.23;;
7383;SDS011;3733;47.994;8.820;2022-09-23T07:31:38;12.10;;;5.63;;
7383;SDS011;3733;47.994;8.820;2022-09-23T07:34:04;5.80;;;4.70;;
7383;SDS011;3733;47.994;8.820;2022-09-23T07:36:30;5.50;;;5.00;;
7383;SDS011;3733;47.994;8.820;2022-09-23T07:38:57;7.83;;;4.63;;
7383;SDS011;3733;47.994;8.820;2022-09-23T07:41:26;7.97;;;5.83;;
7383;SDS011;3733;47.994;8.820;2022-09-23T07:43:53;6.03;;;5.23;;
7383;SDS011;3733;47.994;8.820;2022-09-23T07:46:23;9.23;;;5.27;;
7383;SDS011;3733;47.994;8.820;2022-09-23T07:48:50;6.10;;;5.07;;
7383;SDS011;3733;47.994;8.820;2022-09-23T07:53:53;13.10;;;4.60;;
7383;SDS011;3733;47.994;8.820;2022-09-23T07:56:20;6.40;;;4.40;;
7383;SDS011;3733;47.994;8.820;2022-09-23T07:58:48;7.90;;;4.90;;
7383;SDS011;3733;47.994;8.820;2022-09-23T08:01:31;6.73;;;5.60;;
7383;SDS011;3733;47.994;8.820;2022-09-23T08:06:39;7.57;;;4.80;;
7383;SDS011;3733;47.994;8.820;2022-09-23T08:09:06;6.57;;;5.23;;
7383;SDS011;3733;47.994;8.820;2022-09-23T08:11:32;11.20;;;5.90;;
7383;SDS011;3733;47.994;8.820;2022-09-23T08:13:57;5.97;;;5.37;;
7383;SDS011;3733;47.994;8.820;2022-09-23T08:16:23;9.77;;;6.00;;
7383;SDS011;3733;47.994;8.820;2022-09-23T08:18:49;6.00;;;5.40;;
7383;SDS011;3733;47.994;8.820;2022-09-23T08:21:21;5.83;;;5.10;;
7383;SDS011;3733;47.994;8.820;2022-09-23T08:23:47;8.57;;;5.40;;
7383;SDS011;3733;47.994;8.820;2022-09-23T08:26:13;7.23;;;5.63;;
7383;SDS011;3733;47.994;8.820;2022-09-23T08:28:39;8.17;;;5.93;;
7383;SDS011;3733;47.994;8.820;2022-09-23T08:31:08;8.53;;;6.10;;
7383;SDS011;3733;47.994;8.820;2022-09-23T08:33:34;13.73;;;6.70;;
7383;SDS011;3733;47.994;8.820;2022-09-23T08:36:00;10.77;;;5.70;;
7383;SDS011;3733;47.994;8.820;2022-09-23T08:38:27;10.60;;;6.60;;
7383;SDS011;3733;47.994;8.820;2022-09-23T08:40:54;13.73;;;5.80;;
7383;SDS011;3733;47.994;8.820;2022-09-23T08:43:36;10.80;;;6.30;;
7383;SDS011;3733;47.994;8.820;2022-09-23T08:46:04;8.97;;;6.83;;
7383;SDS011;3733;47.994;8.820;2022-09-23T08:48:43;13.70;;;6.60;;
7383;SDS011;3733;47.994;8.820;2022-09-23T08:51:16;10.80;;;7.40;;
7383;SDS011;3733;47.994;8.820;2022-09-23T08:53:48;9.07;;;6.50;;
7383;SDS011;3733;47.994;8.820;2022-09-23T08:56:15;9.00;;;7.17;;
7383;SDS011;3733;47.994;8.820;2022-09-23T08:58:58;16.33;;;8.07;;
7383;SDS011;3733;47.994;8.820;2022-09-23T09:04:13;11.27;;;8.17;;
7383;SDS011;3733;47.994;8.820;2022-09-23T09:06:47;12.20;;;7.47;;
7383;SDS011;3733;47.994;8.820;2022-09-23T09:09:20;11.87;;;7.67;;
7383;SDS011;3733;47.994;8.820;2022-09-23T09:11:48;17.27;;;8.83;;
7383;SDS011;3733;47.994;8.820;2022-09-23T09:14:34;10.40;;;7.73;;
7383;SDS011;3733;47.994;8.820;2022-09-23T09:17:04;12.57;;;8.40;;
7383;SDS011;3733;47.994;8.820;2022-09-23T09:22:07;12.40;;;8.93;;
7383;SDS011;3733;47.994;8.820;2022-09-23T09:24:43;13.57;;;8.27;;
7383;SDS011;3733;47.994;8.820;2022-09-23T09:27:13;12.20;;;8.73;;
7383;SDS011;3733;47.994;8.820;2022-09-23T09:29:43;11.57;;;8.60;;
7383;SDS011;3733;47.994;8.820;2022-09-23T09:32:15;8.60;;;6.90;;
7383;SDS011;3733;47.994;8.820;2022-09-23T09:34:50;11.00;;;7.83;;
7383;SDS011;3733;47.994;8.820;2022-09-23T09:39:54;10.93;;;8.40;;
7383;SDS011;3733;47.994;8.820;2022-09-23T09:42:22;9.03;;;7.43;;
7383;SDS011;3733;47.994;8.820;2022-09-23T09:50:08;10.03;;;7.67;;
7383;SDS011;3733;47.994;8.820;2022-09-23T09:52:38;9.67;;;7.90;;
7383;SDS011;3733;47.994;8.820;2022-09-23T09:57:51;8.83;;;7.10;;
7383;SDS011;3733;47.994;8.820;2022-09-23T10:02:59;8.90;;;7.00;;
7383;SDS011;3733;47.994;8.820;2022-09-23T10:13:24;8.43;;;6.87;;
7383;SDS011;3733;47.994;8.820;2022-09-23T10:15:52;11.33;;;7.53;;
7383;SDS011;3733;47.994;8.820;2022-09-23T10:20:58;9.50;;;6.80;;
7383;SDS011;3733;47.994;8.820;2022-09-23T10:23:40;9.90;;;6.57;;
7383;SDS011;3733;47.994;8.820;2022-09-23T10:26:16;12.43;;;6.60;;
7383;SDS011;3733;47.994;8.820;2022-09-23T10:28:50;7.73;;;5.63;;
7383;SDS011;3733;47.994;8.820;2022-09-23T10:33:55;9.73;;;6.43;;
7383;SDS011;3733;47.994;8.820;2022-09-23T10:36:34;9.17;;;6.80;;
7383;SDS011;3733;47.994;8.820;2022-09-23T10:39:01;11.57;;;6.40;;
7383;SDS011;3733;47.994;8.820;2022-09-23T10:42:04;9.23;;;6.20;;
7383;SDS011;3733;47.994;8.820;2022-09-23T10:45:17;9.27;;;6.90;;
7383;SDS011;3733;47.994;8.820;2022-09-23T10:48:15;6.53;;;4.80;;
7383;SDS011;3733;47.994;8.820;2022-09-23T10:50:43;11.93;;;6.17;;
7383;SDS011;3733;47.994;8.820;2022-09-23T10:53:21;7.83;;;5.33;;
7383;SDS011;3733;47.994;8.820;2022-09-23T10:58:59;9.10;;;5.80;;
7383;SDS011;3733;47.994;8.820;2022-09-23T11:15:22;7.53;;;5.47;;
7383;SDS011;3733;47.994;8.820;2022-09-23T11:37:16;7.00;;;5.97;;
7383;SDS011;3733;47.994;8.820;2022-09-23T11:40:02;9.70;;;5.67;;
7383;SDS011;3733;47.994;8.820;2022-09-23T11:42:39;8.93;;;5.00;;
7383;SDS011;3733;47.994;8.820;2022-09-23T11:45:38;9.17;;;5.60;;
7383;SDS011;3733;47.994;8.820;2022-09-23T11:48:29;16.40;;;7.30;;
7383;SDS011;3733;47.994;8.820;2022-09-23T11:51:09;6.20;;;5.17;;
7383;SDS011;3733;47.994;8.820;2022-09-23T11:53:48;13.03;;;5.90;;
7383;SDS011;3733;47.994;8.820;2022-09-23T11:56:35;10.80;;;4.93;;
7383;SDS011;3733;47.994;8.820;2022-09-23T12:02:07;9.63;;;6.17;;
7383;SDS011;3733;47.994;8.820;2022-09-23T12:04:39;9.93;;;6.13;;
7383;SDS011;3733;47.994;8.820;2022-09-23T12:12:33;9.40;;;5.20;;
7383;SDS011;3733;47.994;8.820;2022-09-23T12:30:50;10.83;;;5.23;;
7383;SDS011;3733;47.994;8.820;2022-09-23T12:33:27;7.47;;;4.97;;
7383;SDS011;3733;47.994;8.820;2022-09-23T12:36:01;7.70;;;4.33;;
7383;SDS011;3733;47.994;8.820;2022-09-23T12:38:33;8.33;;;4.40;;
7383;SDS011;3733;47.994;8.820;2022-09-23T12:41:01;6.40;;;4.63;;
7383;SDS011;3733;47.994;8.820;2022-09-23T12:43:50;9.73;;;4.77;;
7383;SDS011;3733;47.994;8.820;2022-09-23T12:46:23;6.53;;;4.67;;
7383;SDS011;3733;47.994;8.820;2022-09-23T12:51:23;4.87;;;3.97;;
7383;SDS011;3733;47.994;8.820;2022-09-23T12:53:50;8.60;;;4.27;;
7383;SDS011;3733;47.994;8.820;2022-09-23T12:56:19;9.03;;;4.77;;
7383;SDS011;3733;47.994;8.820;2022-09-23T13:03:44;6.53;;;4.00;;
7383;SDS011;3733;47.994;8.820;2022-09-23T13:09:39;6.80;;;4.20;;
7383;SDS011;3733;47.994;8.820;2022-09-23T13:12:07;5.77;;;4.10;;
7383;SDS011;3733;47.994;8.820;2022-09-23T13:15:01;7.47;;;3.90;;
7383;SDS011;3733;47.994;8.820;2022-09-23T13:17:36;12.10;;;4.10;;
7383;SDS011;3733;47.994;8.820;2022-09-23T13:25:21;9.33;;;3.73;;
7383;SDS011;3733;47.994;8.820;2022-09-23T13:27:53;5.63;;;3.90;;
7383;SDS011;3733;47.994;8.820;2022-09-23T13:30:21;4.60;;;3.50;;
7383;SDS011;3733;47.994;8.820;2022-09-23T13:32:50;4.90;;;4.17;;
7383;SDS011;3733;47.994;8.820;2022-09-23T13:35:33;6.87;;;4.00;;
7383;SDS011;3733;47.994;8.820;2022-09-23T13:38:11;6.87;;;4.10;;
7383;SDS011;3733;47.994;8.820;2022-09-23T13:40:44;6.33;;;3.73;;
7383;SDS011;3733;47.994;8.820;2022-09-23T13:43:16;3.30;;;3.00;;
7383;SDS011;3733;47.994;8.820;2022-09-23T13:45:47;4.80;;;3.30;;
7383;SDS011;3733;47.994;8.820;2022-09-23T13:48:14;3.93;;;3.07;;
7383;SDS011;3733;47.994;8.820;2022-09-23T13:50:47;5.40;;;3.20;;
7383;SDS011;3733;47.994;8.820;2022-09-23T13:53:16;5.10;;;3.50;;
7383;SDS011;3733;47.994;8.820;2022-09-23T13:55:53;4.13;;;2.30;;
7383;SDS011;3733;47.994;8.820;2022-09-23T13:58:43;5.83;;;3.40;;
7383;SDS011;3733;47.994;8.820;2022-09-23T14:01:14;3.33;;;2.97;;
7383;SDS011;3733;47.994;8.820;2022-09-23T14:03:48;2.77;;;2.50;;
7383;SDS011;3733;47.994;8.820;2022-09-23T14:06:14;4.50;;;2.70;;
7383;SDS011;3733;47.994;8.820;2022-09-23T14:08:43;5.07;;;3.13;;
7383;SDS011;3733;47.994;8.820;2022-09-23T14:11:17;6.33;;;3.43;;
7383;SDS011;3733;47.994;8.820;2022-09-23T14:13:46;6.90;;;3.33;;
7383;SDS011;3733;47.994;8.820;2022-09-23T14:16:15;7.03;;;3.13;;
7383;SDS011;3733;47.994;8.820;2022-09-23T14:18:43;4.33;;;3.30;;
7383;SDS011;3733;47.994;8.820;2022-09-23T14:24:15;6.83;;;3.20;;
7383;SDS011;3733;47.994;8.820;2022-09-23T14:26:45;4.53;;;3.13;;
7383;SDS011;3733;47.994;8.820;2022-09-23T14:29:22;5.40;;;3.50;;
7383;SDS011;3733;47.994;8.820;2022-09-23T14:31:56;4.47;;;3.60;;
7383;SDS011;3733;47.994;8.820;2022-09-23T14:40:23;4.67;;;3.30;;
7383;SDS011;3733;47.994;8.820;2022-09-23T14:45:26;6.83;;;3.07;;
7383;SDS011;3733;47.994;8.820;2022-09-23T14:48:18;3.27;;;2.90;;
7383;SDS011;3733;47.994;8.820;2022-09-23T14:50:55;6.67;;;3.13;;
7383;SDS011;3733;47.994;8.820;2022-09-23T14:58:38;3.43;;;2.57;;
7383;SDS011;3733;47.994;8.820;2022-09-23T15:01:35;8.10;;;3.40;;
7383;SDS011;3733;47.994;8.820;2022-09-23T15:09:26;8.23;;;3.50;;
7383;SDS011;3733;47.994;8.820;2022-09-23T15:12:03;7.03;;;3.50;;
7383;SDS011;3733;47.994;8.820;2022-09-23T15:14:34;8.90;;;4.07;;
7383;SDS011;3733;47.994;8.820;2022-09-23T15:17:04;13.83;;;3.60;;
7383;SDS011;3733;47.994;8.820;2022-09-23T15:19:45;9.53;;;3.27;;
7383;SDS011;3733;47.994;8.820;2022-09-23T15:22:21;5.03;;;3.17;;
7383;SDS011;3733;47.994;8.820;2022-09-23T15:24:49;6.33;;;3.00;;
7383;SDS011;3733;47.994;8.820;2022-09-23T15:27:21;6.80;;;3.40;;
7383;SDS011;3733;47.994;8.820;2022-09-23T15:29:48;5.87;;;3.00;;
7383;SDS011;3733;47.994;8.820;2022-09-23T15:32:14;6.17;;;3.17;;
7383;SDS011;3733;47.994;8.820;2022-09-23T15:34:40;4.50;;;3.10;;
7383;SDS011;3733;47.994;8.820;2022-09-23T15:37:08;3.73;;;3.17;;
7383;SDS011;3733;47.994;8.820;2022-09-23T15:39:36;4.00;;;2.80;;
7383;SDS011;3733;47.994;8.820;2022-09-23T15:42:02;5.93;;;3.33;;
7383;SDS011;3733;47.994;8.820;2022-09-23T15:44:28;5.83;;;3.30;;
7383;SDS011;3733;47.994;8.820;2022-09-23T15:46:54;2.50;;;2.30;;
7383;SDS011;3733;47.994;8.820;2022-09-23T15:49:44;3.90;;;2.50;;
7383;SDS011;3733;47.994;8.820;2022-09-23T15:52:11;5.50;;;2.60;;
7383;SDS011;3733;47.994;8.820;2022-09-23T15:54:39;3.80;;;2.10;;
7383;SDS011;3733;47.994;8.820;2022-09-23T15:57:04;3.90;;;2.37;;
7383;SDS011;3733;47.994;8.820;2022-09-23T15:59:30;4.60;;;1.90;;
7383;SDS011;3733;47.994;8.820;2022-09-23T16:01:57;5.77;;;2.70;;
7383;SDS011;3733;47.994;8.820;2022-09-23T16:04:27;6.77;;;2.73;;
7383;SDS011;3733;47.994;8.820;2022-09-23T16:06:55;5.73;;;4.17;;
7383;SDS011;3733;47.994;8.820;2022-09-23T16:09:22;9.63;;;6.17;;
7383;SDS011;3733;47.994;8.820;2022-09-23T16:11:48;12.57;;;8.13;;
7383;SDS011;3733;47.994;8.820;2022-09-23T16:14:16;11.23;;;8.30;;
7383;SDS011;3733;47.994;8.820;2022-09-23T16:16:42;8.43;;;5.43;;
7383;SDS011;3733;47.994;8.820;2022-09-23T16:19:09;6.80;;;4.50;;
7383;SDS011;3733;47.994;8.820;2022-09-23T16:21:36;6.67;;;4.83;;
7383;SDS011;3733;47.994;8.820;2022-09-23T16:24:02;7.20;;;5.80;;
7383;SDS011;3733;47.994;8.820;2022-09-23T16:26:29;6.97;;;5.10;;
7383;SDS011;3733;47.994;8.820;2022-09-23T16:28:58;12.33;;;6.30;;
7383;SDS011;3733;47.994;8.820;2022-09-23T16:31:25;8.13;;;5.40;;
7383;SDS011;3733;47.994;8.820;2022-09-23T16:33:53;4.97;;;4.10;;
7383;SDS011;3733;47.994;8.820;2022-09-23T16:38:51;3.90;;;2.57;;
7383;SDS011;3733;47.994;8.820;2022-09-23T16:41:23;3.90;;;3.10;;
7383;SDS011;3733;47.994;8.820;2022-09-23T16:43:51;5.30;;;3.50;;
7383;SDS011;3733;47.994;8.820;2022-09-23T16:46:17;6.07;;;3.40;;
7383;SDS011;3733;47.994;8.820;2022-09-23T16:48:44;6.10;;;4.20;;
7383;SDS011;3733;47.994;8.820;2022-09-23T16:51:18;4.17;;;3.70;;
7383;SDS011;3733;47.994;8.820;2022-09-23T16:53:45;7.50;;;4.03;;
7383;SDS011;3733;47.994;8.820;2022-09-23T16:56:16;3.33;;;2.83;;
7383;SDS011;3733;47.994;8.820;2022-09-23T16:58:44;6.10;;;3.70;;
7383;SDS011;3733;47.994;8.820;2022-09-23T17:01:12;5.97;;;4.17;;
7383;SDS011;3733;47.994;8.820;2022-09-23T17:04:00;6.00;;;4.23;;
7383;SDS011;3733;47.994;8.820;2022-09-23T17:06:26;6.80;;;4.43;;
7383;SDS011;3733;47.994;8.820;2022-09-23T17:08:53;6.77;;;5.00;;
7383;SDS011;3733;47.994;8.820;2022-09-23T17:11:19;12.33;;;7.80;;
7383;SDS011;3733;47.994;8.820;2022-09-23T17:13:45;9.23;;;5.97;;
7383;SDS011;3733;47.994;8.820;2022-09-23T17:16:25;7.43;;;5.47;;
7383;SDS011;3733;47.994;8.820;2022-09-23T17:18:52;7.60;;;4.70;;
7383;SDS011;3733;47.994;8.820;2022-09-23T17:21:22;7.80;;;4.60;;
7383;SDS011;3733;47.994;8.820;2022-09-23T17:23:52;9.00;;;5.13;;
7383;SDS011;3733;47.994;8.820;2022-09-23T17:26:19;7.57;;;5.30;;
7383;SDS011;3733;47.994;8.820;2022-09-23T17:28:46;6.63;;;5.40;;
7383;SDS011;3733;47.994;8.820;2022-09-23T17:31:11;12.43;;;5.80;;
7383;SDS011;3733;47.994;8.820;2022-09-23T17:33:37;11.43;;;6.07;;
7383;SDS011;3733;47.994;8.820;2022-09-23T17:36:06;12.10;;;7.87;;
7383;SDS011;3733;47.994;8.820;2022-09-23T17:38:33;11.63;;;6.30;;
7383;SDS011;3733;47.994;8.820;2022-09-23T17:40:59;11.43;;;4.83;;
7383;SDS011;3733;47.994;8.820;2022-09-23T17:43:26;5.27;;;3.90;;
7383;SDS011;3733;47.994;8.820;2022-09-23T17:45:56;6.37;;;3.80;;
7383;SDS011;3733;47.994;8.820;2022-09-23T17:48:29;9.03;;;4.63;;
7383;SDS011;3733;47.994;8.820;2022-09-23T17:51:00;9.33;;;6.97;;
7383;SDS011;3733;47.994;8.820;2022-09-23T17:53:35;8.20;;;4.97;;
7383;SDS011;3733;47.994;8.820;2022-09-23T17:58:31;12.93;;;7.60;;
7383;SDS011;3733;47.994;8.820;2022-09-23T18:00:59;15.63;;;6.90;;
7383;SDS011;3733;47.994;8.820;2022-09-23T18:03:25;11.30;;;8.20;;
7383;SDS011;3733;47.994;8.820;2022-09-23T18:05:52;13.70;;;8.57;;
7383;SDS011;3733;47.994;8.820;2022-09-23T18:08:18;19.13;;;10.53;;
7383;SDS011;3733;47.994;8.820;2022-09-23T18:10:44;18.00;;;10.50;;
7383;SDS011;3733;47.994;8.820;2022-09-23T18:13:10;11.17;;;9.33;;
7383;SDS011;3733;47.994;8.820;2022-09-23T18:15:36;7.90;;;6.20;;
7383;SDS011;3733;47.994;8.820;2022-09-23T18:18:04;8.87;;;5.93;;
7383;SDS011;3733;47.994;8.820;2022-09-23T18:20:30;9.20;;;5.93;;
7383;SDS011;3733;47.994;8.820;2022-09-23T18:22:56;9.87;;;6.33;;
7383;SDS011;3733;47.994;8.820;2022-09-23T18:25:21;6.93;;;4.67;;
7383;SDS011;3733;47.994;8.820;2022-09-23T18:27:47;13.83;;;5.83;;
7383;SDS011;3733;47.994;8.820;2022-09-23T18:30:13;7.70;;;5.30;;
7383;SDS011;3733;47.994;8.820;2022-09-23T18:32:39;8.10;;;5.40;;
7383;SDS011;3733;47.994;8.820;2022-09-23T18:35:05;7.77;;;6.17;;
7383;SDS011;3733;47.994;8.820;2022-09-23T18:37:31;7.23;;;5.20;;
7383;SDS011;3733;47.994;8.820;2022-09-23T18:39:57;11.83;;;4.47;;
7383;SDS011;3733;47.994;8.820;2022-09-23T18:42:23;7.90;;;4.67;;